Time;durP1;ratioP1;P1;durP2;ratioP2;P2;SDS_P1;SDS_P2;PMS_P1;PMS_P2;Temp;Humidity;BMP_temperature;BMP_pressure;BME280_temperature;BME280_humidity;BME280_pressure;Samples;Min_cycle;Max_cycle;Signal;HPM_P1;HPM_P2
2023/11/20 00:00:49;;;;;;;8.60;3.93;;;11.30;99.90;;;;;;5052187;28;20270;-74
2023/11/20 00:03:14;;;;;;;6.70;4.47;;;11.30;99.90;;;;;;5051635;28;20183;-73
2023/11/20 00:05:41;;;;;;;10.60;4.50;;;11.40;99.90;;;;;;5052169;28;20178;-71
2023/11/20 00:08:07;;;;;;;10.77;4.20;;;11.50;99.90;;;;;;5051878;28;20254;-71
2023/11/20 00:10:38;;;;;;;6.37;4.60;;;11.50;99.90;;;;;;5051630;28;20175;-71
2023/11/20 00:13:06;;;;;;;8.87;4.27;;;11.60;99.90;;;;;;5077263;23;20232;-87
2023/11/20 00:15:34;;;;;;;8.37;3.83;;;11.60;99.90;;;;;;5073475;28;20178;-87
2023/11/20 00:18:00;;;;;;;10.83;3.90;;;11.70;99.90;;;;;;5038387;28;20206;-88
2023/11/20 00:20:25;;;;;;;11.47;3.97;;;11.70;99.90;;;;;;5035017;28;20178;-87
2023/11/20 00:22:51;;;;;;;9.13;4.47;;;11.70;99.90;;;;;;5019034;28;20229;-88
2023/11/20 00:25:16;;;;;;;6.17;4.20;;;11.80;99.90;;;;;;5052945;28;20193;-87
2023/11/20 00:27:43;;;;;;;8.47;4.00;;;11.80;99.90;;;;;;5052824;28;20307;-87
2023/11/20 00:30:09;;;;;;;9.03;3.63;;;11.80;99.90;;;;;;5035443;28;20191;-87
2023/11/20 00:32:35;;;;;;;7.63;3.93;;;11.90;99.90;;;;;;5053134;28;20222;-87
2023/11/20 00:35:00;;;;;;;6.83;3.70;;;11.90;99.90;;;;;;5053517;28;20260;-87
2023/11/20 00:37:26;;;;;;;7.23;4.00;;;11.80;99.90;;;;;;5052952;28;20681;-87
2023/11/20 00:39:53;;;;;;;6.20;4.20;;;11.80;99.90;;;;;;5034490;28;20240;-87
2023/11/20 00:42:18;;;;;;;9.03;4.20;;;11.80;99.90;;;;;;5034721;28;20608;-87
2023/11/20 00:44:45;;;;;;;8.40;4.17;;;11.70;99.90;;;;;;5034643;28;20210;-88
2023/11/20 00:47:12;;;;;;;8.40;3.63;;;11.50;99.90;;;;;;5034721;28;20355;-87
2023/11/20 00:49:38;;;;;;;9.63;4.03;;;11.40;99.90;;;;;;5052825;28;20224;-87
2023/11/20 00:52:03;;;;;;;6.70;3.70;;;11.30;99.90;;;;;;5034757;28;20210;-87
2023/11/20 00:54:30;;;;;;;10.67;4.30;;;11.20;99.90;;;;;;5034844;28;20558;-87
2023/11/20 00:56:56;;;;;;;13.40;4.30;;;11.20;99.90;;;;;;5034617;28;20649;-87
2023/11/20 00:59:23;;;;;;;13.60;4.70;;;11.10;99.90;;;;;;5034358;28;20200;-87
2023/11/20 01:01:50;;;;;;;8.80;4.17;;;11.00;99.90;;;;;;5034995;28;20284;-87
2023/11/20 01:04:15;;;;;;;10.93;4.63;;;11.10;99.90;;;;;;5034998;28;20292;-87
2023/11/20 01:06:41;;;;;;;11.57;4.70;;;11.10;99.90;;;;;;5034430;28;20198;-88
2023/11/20 01:09:07;;;;;;;11.93;4.63;;;11.10;99.90;;;;;;5034466;28;20563;-88
2023/11/20 01:11:33;;;;;;;11.57;4.37;;;11.00;99.90;;;;;;5051887;28;20195;-88
2023/11/20 01:14:01;;;;;;;16.70;5.60;;;11.00;99.90;;;;;;5034351;28;20174;-87
2023/11/20 01:16:27;;;;;;;11.50;4.93;;;11.00;99.90;;;;;;5034342;28;20278;-87
2023/11/20 01:18:53;;;;;;;6.53;4.50;;;11.00;99.90;;;;;;5017676;28;20178;-87
2023/11/20 01:21:20;;;;;;;8.53;4.50;;;11.00;99.90;;;;;;5052428;28;20174;-87
2023/11/20 01:23:46;;;;;;;13.30;4.90;;;11.00;99.90;;;;;;5033855;28;20215;-87
2023/11/20 01:26:12;;;;;;;10.40;4.80;;;11.00;99.90;;;;;;5052385;28;20520;-86
2023/11/20 01:28:38;;;;;;;13.37;4.77;;;11.00;99.90;;;;;;5017911;28;20182;-87
2023/11/20 01:31:05;;;;;;;11.33;5.10;;;11.00;99.90;;;;;;5051847;28;20186;-86
2023/11/20 01:33:32;;;;;;;10.17;5.43;;;10.90;99.90;;;;;;5033936;28;20268;-87
2023/11/20 01:35:57;;;;;;;8.77;4.93;;;10.90;99.90;;;;;;5051937;28;20175;-87
2023/11/20 01:38:23;;;;;;;13.40;4.87;;;10.90;99.90;;;;;;5034239;28;20247;-87
2023/11/20 01:40:53;;;;;;;11.07;5.20;;;10.90;99.90;;;;;;5051794;28;20179;-87
2023/11/20 01:43:19;;;;;;;12.00;5.53;;;10.90;99.90;;;;;;5034280;28;20166;-86
2023/11/20 01:45:46;;;;;;;7.07;5.10;;;10.90;99.90;;;;;;5033959;28;20228;-87
2023/11/20 01:48:11;;;;;;;12.20;5.40;;;10.80;99.90;;;;;;5033669;28;20194;-87
2023/11/20 01:50:38;;;;;;;9.63;4.57;;;10.80;99.90;;;;;;5034028;28;20174;-87
2023/11/20 01:53:05;;;;;;;10.63;5.17;;;10.70;99.90;;;;;;5021572;28;20259;-87
2023/11/20 01:55:32;;;;;;;8.70;5.10;;;10.80;99.90;;;;;;5037675;28;20604;-87
2023/11/20 01:57:59;;;;;;;12.23;4.80;;;10.80;99.90;;;;;;5037578;28;20194;-87
2023/11/20 02:00:26;;;;;;;7.57;4.77;;;10.80;99.90;;;;;;5055950;28;20521;-87
2023/11/20 02:02:54;;;;;;;5.77;5.33;;;10.80;99.90;;;;;;5037892;28;20178;-89
2023/11/20 02:05:19;;;;;;;7.10;5.40;;;10.80;99.90;;;;;;5056443;28;20171;-87
2023/11/20 02:07:45;;;;;;;11.50;5.03;;;10.80;99.90;;;;;;5055579;28;20195;-88
2023/11/20 02:10:13;;;;;;;12.90;4.73;;;10.80;99.90;;;;;;5037036;28;20208;-88
2023/11/20 02:12:40;;;;;;;7.23;5.03;;;10.80;99.90;;;;;;5055236;28;20206;-88
2023/11/20 02:15:06;;;;;;;14.17;5.60;;;10.90;99.90;;;;;;5037573;28;20202;-88
2023/11/20 02:17:32;;;;;;;6.63;5.00;;;10.90;99.90;;;;;;5055096;28;20202;-89
2023/11/20 02:19:58;;;;;;;8.47;5.00;;;10.90;99.90;;;;;;5037601;28;20660;-88
2023/11/20 02:22:24;;;;;;;10.17;4.67;;;10.90;99.90;;;;;;5037599;28;20240;-88
2023/11/20 02:24:49;;;;;;;12.90;5.07;;;10.90;99.90;;;;;;5048015;28;20274;-88
2023/11/20 02:27:36;;;;;;;8.67;4.60;;;10.90;99.90;;;;;;5040399;28;20195;-88
2023/11/20 02:30:06;;;;;;;10.07;5.03;;;11.00;99.90;;;;;;5040682;28;20213;-87
2023/11/20 02:32:32;;;;;;;10.73;4.90;;;11.00;99.90;;;;;;5037720;28;20206;-88
2023/11/20 02:34:59;;;;;;;11.27;4.13;;;11.00;99.90;;;;;;5054766;28;20228;-87
2023/11/20 02:37:29;;;;;;;7.93;5.53;;;11.00;99.90;;;;;;5037080;28;20199;-87
2023/11/20 02:39:54;;;;;;;11.67;4.80;;;11.10;99.90;;;;;;5036940;28;20188;-87
2023/11/20 02:42:22;;;;;;;7.17;4.50;;;11.10;99.90;;;;;;5055452;28;20186;-88
2023/11/20 02:44:48;;;;;;;9.00;4.87;;;11.10;99.90;;;;;;5036857;28;20178;-87
2023/11/20 02:47:14;;;;;;;8.00;4.77;;;11.20;99.90;;;;;;5055065;28;20540;-87
2023/11/20 02:49:40;;;;;;;11.50;4.47;;;11.10;99.90;;;;;;5020475;28;20178;-88
2023/11/20 02:52:06;;;;;;;9.20;4.70;;;11.10;99.90;;;;;;5054850;28;20676;-88
2023/11/20 02:54:35;;;;;;;9.77;4.47;;;11.10;99.90;;;;;;5054954;28;20180;-88
2023/11/20 02:57:03;;;;;;;6.87;4.13;;;11.00;99.90;;;;;;5036830;28;20626;-88
2023/11/20 02:59:29;;;;;;;5.07;4.00;;;11.00;99.90;;;;;;5053854;28;20175;-88
2023/11/20 03:01:55;;;;;;;5.30;4.27;;;10.90;99.90;;;;;;5036745;28;20228;-87
2023/11/20 03:04:23;;;;;;;10.70;3.83;;;10.90;99.90;;;;;;5035656;28;20251;-88
2023/11/20 03:06:48;;;;;;;8.47;3.93;;;10.90;99.90;;;;;;5036928;28;20198;-88
2023/11/20 03:09:17;;;;;;;10.53;5.10;;;10.80;99.90;;;;;;5036413;28;20729;-88
2023/11/20 03:11:45;;;;;;;4.30;3.80;;;10.80;99.90;;;;;;5036774;28;20982;-88
2023/11/20 03:14:12;;;;;;;13.43;4.00;;;10.80;99.90;;;;;;5036962;28;20262;-87
2023/11/20 03:16:38;;;;;;;6.77;4.00;;;10.80;99.90;;;;;;5036280;28;20570;-88
2023/11/20 03:19:05;;;;;;;4.43;3.60;;;10.90;99.90;;;;;;5054842;28;20167;-88
2023/11/20 03:21:33;;;;;;;10.27;3.87;;;10.90;99.90;;;;;;5054602;28;20178;-88
2023/11/20 03:24:00;;;;;;;5.17;3.83;;;11.00;99.90;;;;;;5036248;28;20183;-87
2023/11/20 03:26:26;;;;;;;6.73;3.73;;;11.00;99.90;;;;;;5036433;28;20693;-88
2023/11/20 03:28:53;;;;;;;4.00;3.60;;;11.00;99.90;;;;;;5054667;28;20178;-88
2023/11/20 03:31:19;;;;;;;8.67;4.43;;;10.90;99.90;;;;;;5054363;28;20305;-88
2023/11/20 03:33:48;;;;;;;4.67;4.00;;;11.00;99.90;;;;;;5036109;28;20183;-88
2023/11/20 03:36:14;;;;;;;10.27;4.17;;;11.00;99.90;;;;;;5054378;28;20170;-87
2023/11/20 03:38:40;;;;;;;7.20;4.23;;;11.00;99.90;;;;;;5035907;28;20229;-88
2023/11/20 03:41:08;;;;;;;9.77;3.90;;;11.00;99.90;;;;;;5036537;28;20174;-87
2023/11/20 03:43:34;;;;;;;4.10;3.70;;;11.10;99.90;;;;;;5037066;28;20266;-88
2023/11/20 03:46:00;;;;;;;3.93;3.53;;;11.20;99.90;;;;;;5036526;28;20216;-88
2023/11/20 03:48:26;;;;;;;6.77;4.00;;;11.30;99.90;;;;;;5037166;28;20657;-88
2023/11/20 03:50:53;;;;;;;7.90;4.40;;;11.30;99.90;;;;;;5054812;28;20163;-88
2023/11/20 03:53:19;;;;;;;6.27;3.93;;;11.30;99.90;;;;;;5020814;28;20210;-88
2023/11/20 03:55:45;;;;;;;4.80;4.30;;;11.40;99.90;;;;;;5054645;28;20198;-88
2023/11/20 03:58:10;;;;;;;4.97;3.90;;;11.40;99.90;;;;;;5036944;28;20216;-88
2023/11/20 04:00:36;;;;;;;8.03;4.40;;;11.40;99.90;;;;;;5037180;28;20179;-87
2023/11/20 04:03:02;;;;;;;6.33;4.07;;;11.40;99.90;;;;;;5036830;28;20171;-88
2023/11/20 04:05:27;;;;;;;7.30;4.13;;;11.50;99.90;;;;;;5036915;28;20194;-87
2023/11/20 04:07:54;;;;;;;4.83;4.20;;;11.50;99.90;;;;;;5020860;28;20206;-87
2023/11/20 04:10:22;;;;;;;7.17;3.90;;;11.30;99.90;;;;;;5054828;28;20175;-88
2023/11/20 04:12:47;;;;;;;7.63;4.00;;;11.20;99.90;;;;;;5054598;28;20211;-88
2023/11/20 04:15:13;;;;;;;6.77;4.17;;;11.00;99.90;;;;;;5035799;28;20181;-87
2023/11/20 04:17:39;;;;;;;5.27;3.83;;;10.90;99.90;;;;;;5036302;28;20194;-87
2023/11/20 04:20:06;;;;;;;5.33;4.43;;;10.80;99.90;;;;;;5035790;28;20175;-87
2023/11/20 04:22:32;;;;;;;5.37;3.90;;;10.80;99.90;;;;;;5036048;28;20183;-88
2023/11/20 04:24:59;;;;;;;8.13;3.97;;;10.70;99.90;;;;;;5054443;28;20182;-89
2023/11/20 04:27:25;;;;;;;9.40;4.40;;;10.70;99.90;;;;;;5036342;28;20245;-88
2023/11/20 04:29:50;;;;;;;5.70;3.73;;;10.70;99.90;;;;;;5036618;28;20182;-87
2023/11/20 04:32:16;;;;;;;5.47;3.97;;;10.60;99.90;;;;;;5053798;28;20301;-86
2023/11/20 04:34:44;;;;;;;8.00;4.40;;;10.70;99.90;;;;;;5054497;28;20218;-87
2023/11/20 04:37:09;;;;;;;7.13;4.10;;;10.60;99.90;;;;;;5035828;28;20478;-88
2023/11/20 04:39:36;;;;;;;5.03;3.80;;;10.60;99.90;;;;;;5036369;28;20209;-89
2023/11/20 04:42:04;;;;;;;3.83;3.53;;;10.60;99.90;;;;;;5036993;28;20175;-87
2023/11/20 04:44:30;;;;;;;7.33;3.77;;;10.60;99.90;;;;;;5054179;28;20184;-87
2023/11/20 04:46:56;;;;;;;10.07;4.40;;;10.60;99.90;;;;;;5035982;28;20199;-88
2023/11/20 04:49:22;;;;;;;6.83;5.20;;;10.60;99.90;;;;;;5036040;28;20672;-87
2023/11/20 04:51:47;;;;;;;10.60;4.80;;;10.60;99.90;;;;;;5036060;28;20190;-88
2023/11/20 04:54:13;;;;;;;6.07;4.17;;;10.60;99.90;;;;;;5055544;28;20174;-88
2023/11/20 04:56:39;;;;;;;7.23;4.03;;;10.60;99.90;;;;;;5038118;28;20665;-87
2023/11/20 04:59:04;;;;;;;11.63;4.03;;;10.60;99.90;;;;;;5035958;28;20177;-88
2023/11/20 05:01:33;;;;;;;5.90;4.17;;;10.50;99.90;;;;;;5053331;28;20205;-87
2023/11/20 05:04:00;;;;;;;7.03;4.27;;;10.50;99.90;;;;;;5035819;28;20178;-87
2023/11/20 05:06:25;;;;;;;5.37;3.90;;;10.40;99.90;;;;;;5035472;28;20201;-88
2023/11/20 05:08:51;;;;;;;10.37;4.80;;;10.40;99.90;;;;;;5053596;28;20183;-87
2023/11/20 05:11:17;;;;;;;11.90;5.17;;;10.40;99.90;;;;;;5035808;28;20565;-88
2023/11/20 05:13:43;;;;;;;6.67;4.20;;;10.40;99.90;;;;;;5019197;28;20198;-89
2023/11/20 05:16:09;;;;;;;11.27;4.73;;;10.30;99.90;;;;;;5035488;28;20171;-88
2023/11/20 05:18:36;;;;;;;11.17;4.10;;;10.40;99.90;;;;;;5035876;28;20185;-89
2023/11/20 05:21:01;;;;;;;6.13;4.00;;;10.40;99.90;;;;;;5036517;28;20171;-87
2023/11/20 05:23:27;;;;;;;7.97;4.13;;;10.40;99.90;;;;;;5035236;28;20171;-87
2023/11/20 05:25:54;;;;;;;9.73;4.30;;;10.50;99.90;;;;;;5053388;28;20179;-87
2023/11/20 05:28:21;;;;;;;13.33;4.70;;;10.50;99.90;;;;;;5039588;28;20190;-89
2023/11/20 05:30:48;;;;;;;4.63;3.90;;;10.60;99.90;;;;;;5039591;28;20560;-88
2023/11/20 05:33:14;;;;;;;11.40;5.00;;;10.70;99.90;;;;;;5040464;28;20210;-88
2023/11/20 05:35:39;;;;;;;9.33;4.10;;;10.80;99.90;;;;;;5056766;28;20605;-88
2023/11/20 05:38:05;;;;;;;14.63;5.10;;;10.90;99.90;;;;;;5057810;28;20198;-87
2023/11/20 05:40:34;;;;;;;9.63;4.27;;;10.90;99.90;;;;;;5039489;28;20179;-88
2023/11/20 05:43:01;;;;;;;9.40;4.03;;;11.00;99.90;;;;;;5055995;28;20183;-88
2023/11/20 05:45:27;;;;;;;14.20;4.77;;;11.00;99.90;;;;;;5039888;28;20175;-86
2023/11/20 05:47:52;;;;;;;14.37;5.20;;;11.00;99.90;;;;;;5057625;28;20241;-89
2023/11/20 05:50:18;;;;;;;9.67;4.60;;;11.00;99.90;;;;;;5039522;28;20174;-87
2023/11/20 05:52:46;;;;;;;10.10;4.17;;;11.00;99.90;;;;;;5057234;28;20211;-89
2023/11/20 05:55:12;;;;;;;7.70;3.83;;;11.00;99.90;;;;;;5039787;28;20178;-88
2023/11/20 05:57:38;;;;;;;16.47;4.83;;;10.90;99.90;;;;;;5039139;28;20684;-88
2023/11/20 06:00:08;;;;;;;12.20;4.40;;;10.90;99.90;;;;;;5039804;28;20595;-88
2023/11/20 06:02:34;;;;;;;9.00;4.73;;;10.80;99.90;;;;;;5039546;28;20178;-87
2023/11/20 06:05:00;;;;;;;7.77;4.27;;;10.80;99.90;;;;;;5039349;28;20744;-86
2023/11/20 06:07:27;;;;;;;10.70;4.13;;;10.80;99.90;;;;;;5039747;28;20218;-87
2023/11/20 06:09:54;;;;;;;11.80;4.97;;;10.90;99.90;;;;;;5038268;28;20611;-88
2023/11/20 06:12:20;;;;;;;12.77;4.57;;;10.90;99.90;;;;;;5039482;28;20206;-88
2023/11/20 06:14:45;;;;;;;8.47;4.07;;;10.90;99.90;;;;;;5039226;28;20641;-89
2023/11/20 06:17:14;;;;;;;13.57;4.50;;;10.90;99.90;;;;;;5039152;28;20688;-88
2023/11/20 06:19:42;;;;;;;10.23;4.57;;;11.00;99.90;;;;;;5039437;28;20203;-88
2023/11/20 06:22:07;;;;;;;9.17;4.80;;;11.00;99.90;;;;;;5056405;28;20174;-89
2023/11/20 06:24:33;;;;;;;12.23;4.43;;;11.00;99.90;;;;;;5038266;28;20221;-88
2023/11/20 06:26:59;;;;;;;13.07;4.10;;;11.10;99.90;;;;;;5039583;28;20190;-89
2023/11/20 06:29:25;;;;;;;9.97;4.20;;;11.10;99.90;;;;;;5054775;28;20179;-87
2023/11/20 06:31:51;;;;;;;9.20;4.47;;;11.10;99.90;;;;;;5051316;28;20215;-89
2023/11/20 06:34:16;;;;;;;8.40;4.40;;;11.10;99.90;;;;;;5041696;28;20191;-88
2023/11/20 06:36:42;;;;;;;5.90;3.97;;;11.10;99.90;;;;;;5040579;28;20194;-89
2023/11/20 06:39:08;;;;;;;8.10;4.23;;;11.10;99.90;;;;;;5040739;28;20672;-88
2023/11/20 06:41:34;;;;;;;14.83;4.70;;;11.10;99.90;;;;;;5043841;28;20182;-89
2023/11/20 06:44:01;;;;;;;10.50;4.77;;;11.10;99.90;;;;;;5048623;28;20174;-89
2023/11/20 06:46:26;;;;;;;12.43;5.17;;;11.00;99.90;;;;;;5029703;28;20243;-89
2023/11/20 06:48:54;;;;;;;11.50;5.17;;;11.00;99.90;;;;;;5043914;28;20179;-92
2023/11/20 06:51:19;;;;;;;10.17;5.10;;;10.90;99.90;;;;;;5041052;28;20198;-87
2023/11/20 06:53:45;;;;;;;10.63;4.40;;;10.80;99.90;;;;;;5042761;28;20250;-87
2023/11/20 06:56:21;;;;;;;6.90;4.23;;;10.80;99.90;;;;;;5041384;28;20186;-88
2023/11/20 06:58:52;;;;;;;14.40;4.50;;;10.70;99.90;;;;;;5059994;28;20553;-87
2023/11/20 07:01:17;;;;;;;11.73;4.60;;;10.70;99.90;;;;;;5062555;28;20197;-87
2023/11/20 07:03:43;;;;;;;11.37;5.13;;;10.60;99.90;;;;;;5043535;28;20587;-87
2023/11/20 07:06:17;;;;;;;16.10;5.10;;;10.60;99.90;;;;;;5041285;28;20253;-88
2023/11/20 07:08:43;;;;;;;14.10;5.10;;;10.60;99.90;;;;;;5042577;28;20181;-88
2023/11/20 07:11:09;;;;;;;11.70;4.73;;;10.60;99.90;;;;;;5044685;28;20459;-88
2023/11/20 07:13:35;;;;;;;7.47;4.17;;;10.60;99.90;;;;;;5044663;28;20653;-87
2023/11/20 07:16:01;;;;;;;8.90;5.10;;;10.60;99.90;;;;;;5047395;28;20242;-89
2023/11/20 07:18:27;;;;;;;9.63;4.80;;;10.60;99.90;;;;;;5045260;28;20281;-88
2023/11/20 07:20:54;;;;;;;8.03;4.13;;;10.60;99.90;;;;;;5043875;28;20182;-89
2023/11/20 07:23:20;;;;;;;7.20;4.27;;;10.70;99.90;;;;;;5048268;28;20178;-88
2023/11/20 07:25:45;;;;;;;10.50;4.80;;;10.80;99.90;;;;;;5048825;28;20266;-87
2023/11/20 07:28:11;;;;;;;9.47;4.97;;;10.90;99.90;;;;;;5068625;28;20292;-87
2023/11/20 07:30:38;;;;;;;10.73;4.23;;;10.90;99.90;;;;;;5067486;28;20190;-88
2023/11/20 07:33:04;;;;;;;13.47;4.53;;;11.00;99.90;;;;;;5067693;28;20225;-88
2023/11/20 07:35:30;;;;;;;11.73;5.03;;;11.00;99.90;;;;;;5070188;28;20238;-88
2023/11/20 07:37:56;;;;;;;7.43;4.27;;;11.00;99.90;;;;;;5068219;28;20206;-88
2023/11/20 07:40:22;;;;;;;13.93;5.00;;;11.10;99.90;;;;;;5050205;28;20186;-88
2023/11/20 07:42:50;;;;;;;9.53;4.23;;;11.10;99.90;;;;;;5068295;28;20163;-87
2023/11/20 07:45:16;;;;;;;12.67;4.77;;;11.10;99.90;;;;;;5055255;28;20178;-87
2023/11/20 07:47:42;;;;;;;10.93;4.47;;;11.10;99.90;;;;;;5023142;28;20202;-87
2023/11/20 07:50:10;;;;;;;13.17;4.90;;;11.10;99.90;;;;;;5053895;28;20183;-88
2023/11/20 07:52:37;;;;;;;12.07;4.10;;;11.10;99.90;;;;;;5036296;28;20220;-87
2023/11/20 07:55:07;;;;;;;11.93;4.03;;;11.10;99.90;;;;;;5036659;28;20186;-88
2023/11/20 07:57:33;;;;;;;9.03;4.60;;;11.00;99.90;;;;;;5036840;28;20293;-87
2023/11/20 08:00:00;;;;;;;10.37;4.40;;;10.90;99.90;;;;;;5053807;28;20652;-87
2023/11/20 08:02:29;;;;;;;12.03;4.53;;;10.80;99.90;;;;;;5054369;28;20296;-87
2023/11/20 08:04:56;;;;;;;14.00;5.17;;;10.80;99.90;;;;;;5055362;28;20198;-90
2023/11/20 08:07:22;;;;;;;11.67;5.10;;;10.80;99.90;;;;;;5057386;28;20222;-88
2023/11/20 08:09:47;;;;;;;10.50;5.07;;;10.90;99.90;;;;;;5060075;28;20381;-92
2023/11/20 08:12:13;;;;;;;10.43;5.17;;;11.10;99.90;;;;;;5038853;28;20677;-87
2023/11/20 08:14:39;;;;;;;16.33;5.60;;;11.20;99.90;;;;;;5053752;28;20178;-88
2023/11/20 08:17:04;;;;;;;11.70;4.60;;;11.30;99.90;;;;;;5035278;28;20734;-87
2023/11/20 08:19:30;;;;;;;15.23;5.73;;;11.30;99.90;;;;;;5034240;28;20718;-86
2023/11/20 08:21:56;;;;;;;17.17;4.80;;;11.30;99.90;;;;;;5034554;28;20441;-86
2023/11/20 08:24:21;;;;;;;10.03;4.90;;;11.40;99.90;;;;;;5034439;28;20175;-87
2023/11/20 08:26:47;;;;;;;9.30;4.30;;;11.40;99.90;;;;;;5034168;28;20209;-86
2023/11/20 08:29:16;;;;;;;6.30;4.37;;;11.50;99.90;;;;;;5052476;28;20209;-87
2023/11/20 08:31:48;;;;;;;11.23;3.90;;;11.60;99.90;;;;;;5052432;28;20205;-87
2023/11/20 08:34:15;;;;;;;11.67;4.37;;;11.60;99.90;;;;;;5052428;28;20195;-87
2023/11/20 08:36:44;;;;;;;10.37;4.10;;;11.60;99.90;;;;;;5052005;28;20199;-87
2023/11/20 08:39:14;;;;;;;10.77;4.10;;;11.60;99.90;;;;;;5033097;28;20415;-86
2023/11/20 08:41:40;;;;;;;12.17;4.50;;;11.50;99.90;;;;;;5034579;28;20268;-87
2023/11/20 08:44:09;;;;;;;14.53;5.47;;;11.60;99.90;;;;;;5034339;28;20179;-87
2023/11/20 08:46:35;;;;;;;13.60;3.80;;;11.60;99.90;;;;;;5034091;28;20677;-86
2023/11/20 08:49:02;;;;;;;10.37;4.00;;;11.70;99.90;;;;;;5034001;28;20265;-87
2023/11/20 08:51:29;;;;;;;17.53;4.40;;;11.80;99.90;;;;;;5034511;28;20293;-87
2023/11/20 08:53:55;;;;;;;13.83;4.53;;;11.90;99.90;;;;;;5033967;28;20174;-87
2023/11/20 08:56:20;;;;;;;8.47;3.90;;;12.00;99.90;;;;;;5033863;28;20190;-86
2023/11/20 08:58:47;;;;;;;7.17;3.90;;;12.10;99.90;;;;;;5033782;28;20171;-87
2023/11/20 09:01:13;;;;;;;9.30;3.87;;;12.10;99.90;;;;;;5033602;28;20177;-87
2023/11/20 09:03:38;;;;;;;7.07;3.67;;;12.10;99.90;;;;;;5030779;28;20580;-87
2023/11/20 09:06:04;;;;;;;7.30;4.10;;;12.00;99.90;;;;;;5014337;28;20178;-87
2023/11/20 09:08:31;;;;;;;12.17;4.23;;;11.90;99.90;;;;;;5017629;28;20171;-87
2023/11/20 09:10:56;;;;;;;8.83;4.33;;;11.90;99.90;;;;;;5033923;28;20264;-86
2023/11/20 09:13:22;;;;;;;4.80;3.50;;;11.80;99.90;;;;;;5033601;28;20763;-86
2023/11/20 09:15:47;;;;;;;8.23;3.87;;;11.80;99.90;;;;;;5051203;28;20163;-87
2023/11/20 09:18:13;;;;;;;9.80;3.93;;;11.70;99.90;;;;;;5036419;28;20191;-88
2023/11/20 09:20:40;;;;;;;7.47;4.13;;;11.40;99.90;;;;;;5054078;28;20178;-87
2023/11/20 09:23:06;;;;;;;12.77;4.00;;;11.20;99.90;;;;;;5053378;28;20186;-87
2023/11/20 09:25:31;;;;;;;7.47;3.97;;;11.10;99.90;;;;;;5035240;28;20232;-87
2023/11/20 09:27:57;;;;;;;5.07;3.93;;;11.00;99.90;;;;;;5020634;28;20302;-86
2023/11/20 09:30:23;;;;;;;8.57;4.07;;;11.00;99.90;;;;;;5035940;28;20174;-86
2023/11/20 09:32:49;;;;;;;9.10;4.20;;;11.00;99.90;;;;;;5057074;28;20297;-87
2023/11/20 09:35:16;;;;;;;9.07;4.00;;;11.10;99.90;;;;;;5037568;28;20175;-88
2023/11/20 09:37:44;;;;;;;5.77;3.97;;;11.20;99.90;;;;;;5055519;28;20758;-87
2023/11/20 09:40:11;;;;;;;9.87;4.00;;;11.20;99.90;;;;;;5021380;28;20171;-88
2023/11/20 09:42:39;;;;;;;12.63;4.30;;;11.40;99.90;;;;;;5055677;28;20220;-87
2023/11/20 09:45:08;;;;;;;6.53;4.03;;;11.50;99.90;;;;;;5033810;28;20175;-88
2023/11/20 09:47:36;;;;;;;6.93;3.50;;;11.60;99.90;;;;;;5033367;28;20194;-88
2023/11/20 09:50:03;;;;;;;5.53;3.60;;;11.60;99.90;;;;;;5056264;28;20583;-87
2023/11/20 09:52:33;;;;;;;5.97;3.80;;;11.50;99.90;;;;;;5019160;28;20303;-88
2023/11/20 09:54:59;;;;;;;7.20;4.03;;;11.50;99.90;;;;;;5053192;28;20496;-87
2023/11/20 09:57:27;;;;;;;6.60;3.63;;;11.50;99.90;;;;;;5053429;28;20195;-88
2023/11/20 09:59:53;;;;;;;10.17;4.20;;;11.50;99.90;;;;;;5034805;28;20170;-87
2023/11/20 10:02:20;;;;;;;6.83;4.23;;;11.50;99.90;;;;;;5053517;28;20179;-89
2023/11/20 10:04:53;;;;;;;4.27;3.40;;;11.60;99.90;;;;;;5036766;28;20259;-87
2023/11/20 10:07:23;;;;;;;9.30;3.63;;;11.70;99.90;;;;;;5037515;28;20640;-87
2023/11/20 10:09:53;;;;;;;4.27;3.63;;;11.80;99.90;;;;;;5053263;28;20266;-87
2023/11/20 10:12:20;;;;;;;6.83;3.77;;;11.70;99.90;;;;;;5054122;28;20208;-90
2023/11/20 10:14:46;;;;;;;8.30;3.90;;;11.60;99.90;;;;;;5041197;28;20174;-87
2023/11/20 10:17:14;;;;;;;6.63;3.50;;;11.60;99.90;;;;;;5038145;28;20201;-87
2023/11/20 10:19:40;;;;;;;10.10;4.00;;;11.60;99.90;;;;;;5055339;28;20210;-88
2023/11/20 10:22:05;;;;;;;5.43;3.90;;;11.60;99.90;;;;;;5037588;28;20179;-87
2023/11/20 10:24:31;;;;;;;10.47;3.90;;;11.70;99.90;;;;;;5037458;28;20170;-87
2023/11/20 10:26:57;;;;;;;5.87;3.80;;;11.70;99.90;;;;;;5055052;28;20198;-87
2023/11/20 10:29:23;;;;;;;5.33;3.53;;;11.70;99.90;;;;;;5037423;28;20207;-88
2023/11/20 10:31:57;;;;;;;8.20;4.00;;;11.70;99.90;;;;;;5037840;28;20229;-88
2023/11/20 10:34:25;;;;;;;9.23;3.97;;;11.70;99.90;;;;;;5055132;28;20706;-87
2023/11/20 10:37:11;;;;;;;8.27;4.00;;;11.60;99.90;;;;;;5020775;28;20548;-87
2023/11/20 10:39:38;;;;;;;6.20;3.30;;;11.50;99.90;;;;;;5037361;28;20252;-86
2023/11/20 10:42:04;;;;;;;5.10;3.20;;;11.50;99.90;;;;;;5038521;28;20588;-87
2023/11/20 10:44:35;;;;;;;3.47;3.20;;;11.50;99.90;;;;;;5036567;28;20233;-88
2023/11/20 10:47:03;;;;;;;3.57;3.27;;;11.40;99.90;;;;;;5018583;28;20199;-87
2023/11/20 10:49:35;;;;;;;4.10;3.20;;;11.40;99.90;;;;;;5017916;28;20325;-87
2023/11/20 10:52:09;;;;;;;4.50;3.40;;;11.50;99.90;;;;;;5034469;28;20233;-88
2023/11/20 10:54:49;;;;;;;3.50;3.13;;;11.50;99.90;;;;;;5035575;28;20553;-88
2023/11/20 10:57:18;;;;;;;5.47;3.10;;;11.60;99.90;;;;;;5019542;28;20198;-90
2023/11/20 10:59:45;;;;;;;3.80;3.40;;;11.60;99.90;;;;;;5039458;28;20170;-89
2023/11/20 11:02:22;;;;;;;4.20;3.80;;;11.50;99.90;;;;;;5041484;28;20166;-89
2023/11/20 11:04:51;;;;;;;4.40;4.00;;;11.60;99.90;;;;;;5039148;28;20170;-89
2023/11/20 11:07:24;;;;;;;5.70;3.90;;;11.60;99.90;;;;;;5038419;28;20230;-88
2023/11/20 11:09:52;;;;;;;4.93;3.50;;;11.60;99.90;;;;;;5036930;28;20174;-89
2023/11/20 11:12:21;;;;;;;4.37;3.30;;;11.60;99.90;;;;;;5037185;28;20214;-89
2023/11/20 11:14:47;;;;;;;3.73;3.23;;;11.50;99.90;;;;;;5055783;28;20163;-89
2023/11/20 11:17:21;;;;;;;3.50;3.20;;;11.50;99.90;;;;;;5036928;28;20679;-89
2023/11/20 11:19:58;;;;;;;3.87;3.10;;;11.50;99.90;;;;;;5054826;28;20655;-89
2023/11/20 11:22:35;;;;;;;5.63;3.13;;;11.50;99.90;;;;;;5037709;28;20182;-89
2023/11/20 11:25:09;;;;;;;3.23;3.00;;;11.40;99.90;;;;;;5054110;28;20221;-89
2023/11/20 11:27:51;;;;;;;3.37;3.07;;;11.50;99.90;;;;;;5037402;28;20243;-89
2023/11/20 11:30:19;;;;;;;3.20;3.00;;;11.40;99.90;;;;;;5054705;28;20205;-88
2023/11/20 11:33:07;;;;;;;3.70;2.90;;;11.50;99.90;;;;;;5037565;28;20206;-88
2023/11/20 11:35:45;;;;;;;2.93;2.70;;;11.60;99.90;;;;;;5054394;28;20553;-88
2023/11/20 11:38:26;;;;;;;4.30;3.20;;;11.60;99.90;;;;;;5036755;28;20598;-88
2023/11/20 11:41:22;;;;;;;4.50;3.10;;;11.70;99.90;;;;;;5036587;28;20331;-87
2023/11/20 11:44:12;;;;;;;3.00;2.80;;;11.80;99.90;;;;;;5038016;28;20179;-86
2023/11/20 11:46:37;;;;;;;3.50;3.20;;;11.80;99.90;;;;;;5035946;28;20226;-87
2023/11/20 11:49:23;;;;;;;4.17;3.10;;;11.80;99.90;;;;;;5036749;28;20186;-87
2023/11/20 11:51:51;;;;;;;3.80;3.50;;;11.80;99.90;;;;;;5019541;28;20754;-88
2023/11/20 11:54:17;;;;;;;3.60;3.30;;;11.70;99.90;;;;;;5038084;28;20234;-87
2023/11/20 11:56:49;;;;;;;3.67;3.07;;;11.60;99.90;;;;;;5036703;28;20233;-87
2023/11/20 11:59:26;;;;;;;3.73;3.33;;;11.50;99.90;;;;;;5036029;28;20607;-88
2023/11/20 12:01:52;;;;;;;3.87;3.17;;;11.60;99.90;;;;;;5035846;28;20551;-88
2023/11/20 12:04:52;;;;;;;3.27;3.00;;;11.50;99.90;;;;;;5035600;28;20174;-87
2023/11/20 12:07:36;;;;;;;8.80;3.20;;;11.60;99.90;;;;;;5036200;28;20198;-86
2023/11/20 12:10:04;;;;;;;7.50;3.57;;;11.60;99.90;;;;;;5053393;28;20498;-88
2023/11/20 12:12:51;;;;;;;4.67;3.37;;;11.70;99.90;;;;;;5053828;28;20266;-90
2023/11/20 12:15:50;;;;;;;4.77;3.33;;;11.60;99.90;;;;;;5035058;28;20174;-88
2023/11/20 12:18:23;;;;;;;3.57;3.27;;;11.70;99.90;;;;;;5037369;28;20202;-87
2023/11/20 12:20:55;;;;;;;5.60;3.40;;;11.70;1.00;;;;;;5053937;28;20177;-88
2023/11/20 12:23:33;;;;;;;6.60;3.30;;;11.60;1.00;;;;;;5037066;28;20175;-89
2023/11/20 12:26:04;;;;;;;4.87;3.00;;;11.60;1.00;;;;;;5036724;28;20273;-89
2023/11/20 12:28:32;;;;;;;4.47;3.27;;;11.60;1.00;;;;;;5038158;28;20198;-88
2023/11/20 12:31:05;;;;;;;6.77;3.70;;;11.60;99.90;;;;;;5021930;28;20270;-88
2023/11/20 12:33:33;;;;;;;9.30;3.77;;;11.60;99.90;;;;;;5048305;28;20221;-88
2023/11/20 12:36:00;;;;;;;11.70;3.83;;;11.60;99.90;;;;;;5054245;28;20641;-88
2023/11/20 12:38:35;;;;;;;6.20;3.37;;;11.60;1.00;;;;;;5053731;28;20584;-88
2023/11/20 12:41:05;;;;;;;4.47;3.10;;;11.70;1.00;;;;;;5035543;28;20182;-88
2023/11/20 12:43:32;;;;;;;6.17;3.30;;;11.80;99.90;;;;;;5037544;28;20175;-88
2023/11/20 12:46:06;;;;;;;8.33;3.40;;;11.90;71.10;;;;;;5035797;28;20237;-88